Share

Selawik, AK

8:32 PM AKDT on April 23, 2014 (GMT -0800)
RAWS SELAWIK AK US (MSWKA2) Elev 104 ft | 66.61 °N, 159.09 °W | Change Station

Current weather conditions updated 43 minutes ago

Clear
Clear
41 °F
Feels Like 38 °F
N
5
Wind Variable Wind from ENE
Gusts 7.0 mph
Sunrise 6:23 AM
Sunset 10:55 PM
Moon Waning Crescent

Tomorrow is forecast to be Cooler than today.

Pressure 29.88 in
Visibility 10.0 miles
Clouds Clear
Windchill 38 °F
Dew Point 31 °F
Humidity 67%
Rainfall 0.00 in
Snow Depth Not available.
UV 1 out of 16
Pollen Not available.
Air Quality Not available.
Flu Activity Sporadic
METAR PAIK 240401Z AUTO 33004KT 10SM CLR 08/M01 A2975 RMK AO2 SLP117 T00831011

More Conditions Fewer Conditions

Pressure 29.88 in
Visibility 10.0 miles
Clouds Clear
Windchill 38 °F
Dew Point 31 °F
Humidity 67%
Rainfall 0.00 in
Snow Depth Not available.
UV 1 out of 16
Pollen Not available.
Air Quality Not available.
Flu Activity Sporadic
METAR PAIK 240401Z AUTO 33004KT 10SM CLR 08/M01 A2975 RMK AO2 SLP117 T00831011

More Conditions Fewer Conditions

10-Day Weather Forecast

Almanac

Astronomy

Apr. 23, 2014 Rise Set
Actual Time 6:23 AM AKDT 10:55 PM AKDT
Civil Twilight 5:10 AM AKDT 12:09 AM AKDT
Nautical Twilight 3:10 AM AKDT 2:05 AM AKDT
Astronomical Twilight Sun does not rise Sun does not rise
Moon 5:35 AM AKDT (4/23) 2:52 PM AKDT (4/23)
Length of Visible Light 18h 59m
Length of Day
16h 32m
Tomorrow will be 7m 48s longer.
Waning Crescent, 29% of the Moon is Illuminated
Apr 24
Waning Crescent
Apr 29
New
May 6
First Quarter
May 14
Full
May 21
Last Quarter

Yesterday's Extremes

State Highs State Lows

Community

  • Stacked
    Stacked
  • Balance
    Balance
  • Nestled In
    Nestled In
  • Stunning Sunrise
    Stunning Sunrise
  • spring flowers
    spring flowers

WunderPhotos

Upload Photos

1,704,560 photos uploaded!

WunderBlogs® & News

Nearby

Snow Depth

Station Depth Elevation
Rocky Point 1 in 500 ft
Gobblers Knob 6 in 2030 ft
Coldfoot 21 in 1040 ft
Atigun Pass 36 in 4800 ft
Imnaviat Creek 26 in 3050 ft

Coastal Water Temperatures

Place Temperature
No Stations Reporting

Earthquake Activity

City Distance Mag. Time & Date
No recent earthquake activity has been reported nearby.
Minimum magnitude displayed is 2.5.

Nearby Weather Stations

Station Location Temp. Windchill Dew Point Humidity Wind Precip. Elev Updated Type
RAWS SELAWIK AK, Selawik, AK 41 °F 38 °F 31 °F 67% ENE  at  5 mph 0.00 in / hr 104 ft 7:49 PM AKDT MADIS

Show More Stations Show Fewer Stations

What do you think?

We're not finished. Please let us know what you like, what you don't like, and what you are still missing.